Time;durP1;ratioP1;P1;durP2;ratioP2;P2;SDS_P1;SDS_P2;PMS_P1;PMS_P2;Temp;Humidity;BMP_temperature;BMP_pressure;BME280_temperature;BME280_humidity;BME280_pressure;Samples;Min_cycle;Max_cycle;Signal;HPM_P1;HPM_P2
2022/10/04 00:02:15;;;;;;;16.75;9.20;;;;;;;12.41;86.96;102240.09;4983561;28;20051;-56
2022/10/04 00:04:50;;;;;;;12.73;8.68;;;;;;;12.39;87.10;102241.09;4962880;28;20523;-56
2022/10/04 00:07:20;;;;;;;13.48;9.57;;;;;;;12.34;87.40;102243.13;4979822;28;20109;-57
2022/10/04 00:09:53;;;;;;;13.63;9.23;;;;;;;12.39;87.27;102236.63;4990434;28;20045;-56
2022/10/04 00:12:31;;;;;;;16.77;9.02;;;;;;;12.38;87.41;102245.56;4989858;28;20034;-56
2022/10/04 00:15:00;;;;;;;16.83;9.25;;;;;;;12.25;87.75;102228.41;4990105;28;20090;-57
2022/10/04 00:17:31;;;;;;;14.80;8.52;;;;;;;12.31;87.51;102230.78;4990278;28;20072;-56
2022/10/04 00:19:57;;;;;;;18.40;9.40;;;;;;;12.25;87.44;102221.25;4990015;28;20034;-57
2022/10/04 00:22:32;;;;;;;18.63;9.50;;;;;;;12.33;87.31;102220.91;4987189;28;20486;-57
2022/10/04 00:25:06;;;;;;;16.85;9.82;;;;;;;12.34;86.92;102227.97;4989950;28;20121;-56
2022/10/04 00:27:34;;;;;;;19.90;8.85;;;;;;;12.21;87.06;102222.38;4990358;28;20054;-56
2022/10/04 00:30:02;;;;;;;18.60;9.07;;;;;;;12.30;86.39;102217.53;4988356;28;20073;-57
2022/10/04 00:32:44;;;;;;;14.48;8.43;;;;;;;12.15;86.43;102214.66;4990123;28;20030;-56
2022/10/04 00:35:24;;;;;;;20.48;9.00;;;;;;;12.24;86.47;102210.69;4987959;28;20113;-56
2022/10/04 00:38:05;;;;;;;21.75;8.45;;;;;;;12.18;86.59;102211.84;4972472;28;20554;-57
2022/10/04 00:40:40;;;;;;;11.85;8.25;;;;;;;12.04;86.53;102200.97;4983207;28;20408;-56
2022/10/04 00:43:11;;;;;;;15.73;8.52;;;;;;;12.04;86.44;102208.97;4988624;28;20031;-57
2022/10/04 00:45:50;;;;;;;16.92;8.18;;;;;;;12.02;86.72;102213.50;4991329;28;20393;-57
2022/10/04 00:48:34;;;;;;;14.93;9.15;;;;;;;12.12;85.92;102217.47;4988564;28;20029;-56
2022/10/04 00:51:06;;;;;;;14.13;8.63;;;;;;;11.99;85.98;102217.16;4988550;28;20034;-57
2022/10/04 00:53:49;;;;;;;13.80;9.30;;;;;;;12.02;86.19;102217.03;4989059;28;20034;-56
2022/10/04 00:56:23;;;;;;;10.82;8.10;;;;;;;11.88;86.71;102216.78;4988513;28;20034;-56
2022/10/04 00:58:56;;;;;;;15.77;9.07;;;;;;;11.93;86.67;102209.47;4987457;28;20022;-56
2022/10/04 01:01:24;;;;;;;13.93;8.85;;;;;;;11.95;86.16;102206.72;4988299;28;20038;-57
2022/10/04 01:03:55;;;;;;;15.95;9.23;;;;;;;11.82;86.63;102195.72;4988344;28;20093;-56
2022/10/04 01:06:26;;;;;;;18.73;9.50;;;;;;;11.86;85.97;102188.50;4972234;28;20446;-57
2022/10/04 01:08:57;;;;;;;14.50;8.80;;;;;;;11.90;86.21;102182.09;4989006;28;20377;-57
2022/10/04 01:11:25;;;;;;;11.27;9.15;;;;;;;11.92;85.90;102190.88;4970368;28;20481;-57
2022/10/04 01:14:02;;;;;;;16.48;9.43;;;;;;;11.88;86.31;102175.94;4987375;28;20073;-56
2022/10/04 01:16:32;;;;;;;17.20;9.48;;;;;;;11.78;86.19;102175.50;4954026;28;20027;-57
2022/10/04 01:19:20;;;;;;;16.40;9.63;;;;;;;11.88;86.06;102174.13;4986178;28;20029;-57
2022/10/04 01:21:56;;;;;;;15.32;9.25;;;;;;;11.72;86.01;102167.78;4960996;28;20047;-57
2022/10/04 01:24:21;;;;;;;19.17;9.38;;;;;;;11.81;86.15;102170.88;4978521;28;20038;-57
2022/10/04 01:26:47;;;;;;;16.83;10.10;;;;;;;11.80;86.03;102176.28;4978681;28;20095;-57
2022/10/04 01:29:18;;;;;;;13.88;9.20;;;;;;;11.77;86.28;102168.44;4998909;28;20034;-57
2022/10/04 01:31:47;;;;;;;17.85;9.70;;;;;;;11.68;86.70;102158.22;5004522;28;20054;-56
2022/10/04 01:34:21;;;;;;;13.73;8.88;;;;;;;11.57;86.64;102159.56;4987317;28;20500;-57
2022/10/04 01:36:48;;;;;;;15.85;10.00;;;;;;;11.57;86.89;102166.69;4971609;28;20058;-57
2022/10/04 01:39:16;;;;;;;20.52;9.70;;;;;;;11.50;86.63;102165.22;4988422;28;20027;-57
2022/10/04 01:41:50;;;;;;;14.73;10.32;;;;;;;11.55;86.70;102169.41;4970986;28;20038;-55
2022/10/04 01:44:44;;;;;;;16.17;9.82;;;;;;;11.53;86.39;102158.00;4993563;28;20087;-57
2022/10/04 01:47:18;;;;;;;16.00;9.45;;;;;;;11.39;86.46;102139.09;4974717;28;20030;-56
2022/10/04 01:49:46;;;;;;;14.30;9.88;;;;;;;11.53;86.57;102150.00;4987862;28;20030;-56
2022/10/04 01:52:24;;;;;;;15.13;9.82;;;;;;;11.47;86.94;102154.72;4988370;28;20030;-57
2022/10/04 01:55:06;;;;;;;14.38;9.80;;;;;;;11.45;87.31;102157.47;4989030;28;20022;-56
2022/10/04 01:57:41;;;;;;;14.38;9.40;;;;;;;11.49;86.92;102155.53;4987968;28;20052;-56
2022/10/04 02:00:11;;;;;;;15.80;10.07;;;;;;;11.39;87.54;102147.09;4970157;28;20041;-56
2022/10/04 02:02:42;;;;;;;;;;;;;;;11.59;86.14;102143.53;4974677;28;20034;-57
2022/10/04 02:05:12;;;;;;;16.52;10.82;;;;;;;11.45;87.50;102156.59;4988849;28;19918;-56
2022/10/04 02:07:39;;;;;;;18.95;10.65;;;;;;;11.41;87.33;102147.00;4972894;28;20022;-56
2022/10/04 02:10:15;;;;;;;18.77;10.85;;;;;;;11.31;87.45;102135.91;4977389;28;20539;-56
2022/10/04 02:12:46;;;;;;;20.02;10.60;;;;;;;11.38;87.63;102142.69;4982901;28;20034;-57
2022/10/04 02:15:12;;;;;;;17.77;9.43;;;;;;;11.35;87.62;102130.41;4973432;28;20055;-56
2022/10/04 02:17:41;;;;;;;12.82;9.45;;;;;;;11.14;87.42;102116.22;4990629;28;20030;-57
2022/10/04 02:20:20;;;;;;;17.93;10.63;;;;;;;11.32;88.11;102122.53;4993579;28;20505;-56
2022/10/04 02:23:02;;;;;;;16.70;11.53;;;;;;;11.21;87.69;102108.84;5005170;28;20026;-56
2022/10/04 02:25:28;;;;;;;22.33;10.88;;;;;;;11.23;87.86;102114.09;4973589;28;20885;-56
2022/10/04 02:27:54;;;;;;;15.98;10.52;;;;;;;11.13;88.03;102111.00;4991275;28;20026;-56
2022/10/04 02:30:22;;;;;;;16.10;10.00;;;;;;;11.18;88.14;102102.78;4981795;28;20029;-57
2022/10/04 02:32:58;;;;;;;20.08;11.65;;;;;;;11.14;88.22;102096.72;4991231;28;20026;-57
2022/10/04 02:35:46;;;;;;;19.88;10.77;;;;;;;11.08;88.02;102092.53;4990588;28;20033;-57
2022/10/04 02:38:12;;;;;;;21.20;11.13;;;;;;;11.14;88.29;102088.75;4989471;28;20489;-57
2022/10/04 02:40:58;;;;;;;13.88;10.45;;;;;;;11.07;87.88;102079.31;4990478;28;20027;-57
2022/10/04 02:43:37;;;;;;;17.25;10.20;;;;;;;11.03;88.56;102081.25;4980979;28;20104;-58
2022/10/04 02:46:08;;;;;;;17.92;11.18;;;;;;;10.95;87.97;102085.19;4991250;28;20030;-56
2022/10/04 02:48:46;;;;;;;14.25;10.95;;;;;;;10.99;88.48;102073.47;4989714;28;20559;-57
2022/10/04 02:51:33;;;;;;;18.98;11.70;;;;;;;10.86;89.51;102058.06;4991831;28;20026;-58
2022/10/04 02:54:13;;;;;;;18.98;12.10;;;;;;;10.85;89.56;102053.66;4990720;28;20054;-56
2022/10/04 02:56:42;;;;;;;21.92;12.35;;;;;;;10.81;89.13;102053.88;4989761;28;20282;-57
2022/10/04 02:59:15;;;;;;;20.13;11.73;;;;;;;10.82;89.44;102044.94;4990568;28;20030;-57
2022/10/04 03:02:00;;;;;;;19.67;12.40;;;;;;;10.78;89.50;102040.69;4991686;28;20035;-57
2022/10/04 03:04:30;;;;;;;22.63;12.13;;;;;;;10.82;89.96;102040.47;4985386;28;20030;-57
2022/10/04 03:06:56;;;;;;;;;;;;;;;10.89;88.35;102036.63;4979799;28;20428;-57
2022/10/04 03:09:23;;;;;;;20.05;13.82;;;;;;;10.82;89.28;102036.94;4990405;28;19937;-56
2022/10/04 03:11:50;;;;;;;20.60;12.75;;;;;;;10.74;88.92;102026.66;5003982;28;20037;-57
2022/10/04 03:14:26;;;;;;;14.38;11.93;;;;;;;10.67;89.87;102020.75;4987361;28;20127;-57
2022/10/04 03:16:59;;;;;;;20.95;13.23;;;;;;;10.72;89.53;102033.84;4988933;28;20030;-56
2022/10/04 03:19:29;;;;;;;19.25;12.52;;;;;;;10.71;89.42;102039.22;4989381;28;20496;-57
2022/10/04 03:21:58;;;;;;;18.55;11.98;;;;;;;10.71;89.69;102037.44;4991359;28;20069;-57
2022/10/04 03:24:28;;;;;;;18.33;12.38;;;;;;;10.62;89.14;102035.22;5008222;28;20041;-56
2022/10/04 03:26:58;;;;;;;18.42;11.95;;;;;;;10.55;88.82;102036.38;4989709;28;20030;-57
2022/10/04 03:29:29;;;;;;;19.48;12.23;;;;;;;10.53;89.20;102028.50;4990251;28;20030;-56
2022/10/04 03:31:58;;;;;;;17.60;12.50;;;;;;;10.59;89.29;102028.22;4988122;28;20072;-57
2022/10/04 03:34:34;;;;;;;16.13;12.57;;;;;;;10.57;90.09;102038.06;4960451;28;20042;-56
2022/10/04 03:37:01;;;;;;;19.35;12.13;;;;;;;10.50;89.31;102023.31;4990241;28;20067;-56
2022/10/04 03:39:30;;;;;;;21.08;11.88;;;;;;;10.45;89.64;102025.28;4989645;28;20109;-56
2022/10/04 03:41:57;;;;;;;17.05;11.27;;;;;;;10.42;89.57;102013.00;4984082;28;20034;-56
2022/10/04 03:44:23;;;;;;;17.10;12.50;;;;;;;10.40;89.50;102003.34;4972002;28;20506;-56
2022/10/04 03:46:57;;;;;;;17.70;11.93;;;;;;;10.30;90.13;101997.56;4991051;28;20031;-56
2022/10/04 03:49:34;;;;;;;20.20;12.20;;;;;;;10.39;89.77;102014.94;4989679;28;20029;-57
2022/10/04 03:52:01;;;;;;;19.48;12.50;;;;;;;10.32;90.18;102005.47;4974265;28;20035;-57
2022/10/04 03:54:28;;;;;;;17.85;11.43;;;;;;;10.36;89.14;102001.75;4986100;28;20392;-56
2022/10/04 03:56:55;;;;;;;19.40;11.73;;;;;;;10.37;89.22;102006.13;4971076;28;20090;-56
2022/10/04 03:59:24;;;;;;;17.83;12.10;;;;;;;10.31;89.33;101995.78;4953670;28;20069;-56
2022/10/04 04:01:57;;;;;;;19.77;11.67;;;;;;;10.27;89.88;101989.72;4967345;28;20030;-57
2022/10/04 04:04:45;;;;;;;17.63;11.20;;;;;;;10.23;89.76;101996.94;4988032;28;20038;-57
2022/10/04 04:07:19;;;;;;;16.98;12.00;;;;;;;10.17;89.90;101989.22;4989219;28;20023;-57
2022/10/04 04:09:47;;;;;;;18.40;11.73;;;;;;;10.21;89.97;101995.28;4989557;28;20033;-56
2022/10/04 04:12:23;;;;;;;16.40;11.50;;;;;;;10.12;89.76;101988.56;4994548;28;20021;-56
2022/10/04 04:14:53;;;;;;;18.15;11.70;;;;;;;10.11;90.04;101988.63;4999691;28;20057;-56
2022/10/04 04:17:26;;;;;;;19.40;11.75;;;;;;;10.18;90.15;102001.59;4972318;28;20030;-56
2022/10/04 04:19:54;;;;;;;17.40;11.60;;;;;;;10.10;89.67;101998.38;4984371;28;20050;-56
2022/10/04 04:22:20;;;;;;;18.63;12.05;;;;;;;10.10;89.87;101993.06;4970812;28;20458;-57
2022/10/04 04:24:46;;;;;;;15.27;11.43;;;;;;;10.05;90.18;101986.22;4983803;28;20022;-56
2022/10/04 04:27:15;;;;;;;16.33;11.85;;;;;;;10.12;90.18;102001.00;4979538;28;20027;-56
2022/10/04 04:29:52;;;;;;;18.95;12.00;;;;;;;10.22;89.66;102008.50;4988263;28;20030;-56
2022/10/04 04:32:23;;;;;;;17.60;11.68;;;;;;;10.06;89.26;102007.44;4989368;28;20447;-56
2022/10/04 04:34:59;;;;;;;17.63;11.45;;;;;;;10.10;89.45;102003.72;4988161;28;20046;-56
2022/10/04 04:37:25;;;;;;;15.00;11.55;;;;;;;10.07;89.53;101995.88;5006393;28;20034;-56
2022/10/04 04:39:54;;;;;;;17.35;11.20;;;;;;;10.05;89.59;101988.88;4994067;28;20041;-56
2022/10/04 04:42:32;;;;;;;15.32;11.55;;;;;;;10.11;89.35;101993.94;5004036;28;20038;-56
2022/10/04 04:45:02;;;;;;;17.90;11.75;;;;;;;10.03;89.31;101988.97;4989060;28;20034;-57
2022/10/04 04:47:34;;;;;;;19.30;11.02;;;;;;;10.02;89.22;101980.09;5000200;28;20038;-56
2022/10/04 04:50:18;;;;;;;15.80;11.07;;;;;;;10.06;89.23;101985.28;4956632;28;20042;-57
2022/10/04 04:52:49;;;;;;;20.35;11.65;;;;;;;9.98;89.45;101982.97;4989184;28;20037;-56
2022/10/04 04:55:20;;;;;;;21.48;11.10;;;;;;;9.97;89.89;101975.91;4980642;28;20493;-56
2022/10/04 04:57:50;;;;;;;19.00;12.15;;;;;;;9.93;90.27;101971.66;4996467;28;20388;-56
2022/10/04 05:00:24;;;;;;;19.40;12.45;;;;;;;9.95;90.38;101972.47;4970299;28;20030;-56
2022/10/04 05:02:58;;;;;;;18.98;12.50;;;;;;;9.94;90.40;101960.09;4981144;28;20026;-57
2022/10/04 05:05:27;;;;;;;22.05;11.77;;;;;;;9.94;90.27;101965.41;4966717;28;20392;-57
2022/10/04 05:08:19;;;;;;;14.70;11.68;;;;;;;10.05;89.69;101980.91;4973861;28;20499;-56
2022/10/04 05:11:08;;;;;;;16.90;11.15;;;;;;;10.05;90.07;101984.44;4988835;28;20038;-57
2022/10/04 05:13:43;;;;;;;18.10;11.43;;;;;;;9.99;89.48;101982.88;4980634;28;20034;-56
2022/10/04 05:16:21;;;;;;;19.60;11.75;;;;;;;9.99;90.00;101985.53;4981164;28;20054;-57
2022/10/04 05:18:47;;;;;;;16.10;10.95;;;;;;;9.92;89.73;101980.56;4978801;28;20042;-56
2022/10/04 05:21:19;;;;;;;14.07;10.48;;;;;;;9.87;89.40;101982.56;4987281;28;20027;-56
2022/10/04 05:23:46;;;;;;;19.58;10.07;;;;;;;9.95;89.72;101985.75;4986240;28;20113;-57
2022/10/04 05:26:13;;;;;;;13.77;9.75;;;;;;;9.82;88.98;101982.72;4978760;28;20077;-57
2022/10/04 05:28:39;;;;;;;17.02;10.00;;;;;;;9.86;89.70;101983.50;4976137;28;20029;-57
2022/10/04 05:31:10;;;;;;;13.75;9.93;;;;;;;9.82;89.73;101980.06;4971296;28;20249;-56
2022/10/04 05:33:49;;;;;;;17.58;9.73;;;;;;;9.82;89.73;101982.72;4988720;28;20110;-57
2022/10/04 05:36:17;;;;;;;11.88;8.82;;;;;;;9.83;89.46;101976.50;4971743;28;20027;-56
2022/10/04 05:38:48;;;;;;;15.10;9.18;;;;;;;9.81;89.76;101982.81;4989135;28;20125;-57
2022/10/04 05:41:16;;;;;;;16.95;9.98;;;;;;;9.81;89.77;101978.34;4989532;28;20037;-57
2022/10/04 05:43:50;;;;;;;16.23;10.27;;;;;;;9.80;89.70;101975.78;4988457;28;20072;-57
2022/10/04 05:46:32;;;;;;;13.98;8.57;;;;;;;9.83;90.01;101983.63;4974998;28;20027;-57
2022/10/04 05:49:07;;;;;;;13.98;8.57;;;;;;;9.80;89.88;101975.78;4991705;28;20026;-56
2022/10/04 05:51:46;;;;;;;15.70;9.02;;;;;;;9.81;89.44;101983.66;4992716;28;20420;-57
2022/10/04 05:54:20;;;;;;;12.43;8.50;;;;;;;9.84;89.40;101990.66;4991301;28;20019;-57
2022/10/04 05:57:09;;;;;;;12.40;8.18;;;;;;;9.89;89.66;101994.00;4974854;28;20058;-56
2022/10/04 05:59:39;;;;;;;13.05;8.35;;;;;;;9.87;88.62;101999.34;4993413;28;20035;-56
2022/10/04 06:02:08;;;;;;;13.30;8.50;;;;;;;9.82;88.92;101993.34;4975211;28;20037;-57
2022/10/04 06:04:47;;;;;;;19.60;8.38;;;;;;;9.83;89.06;102005.75;4974183;28;20552;-55
2022/10/04 06:07:20;;;;;;;12.88;8.10;;;;;;;9.80;89.26;101997.03;4958819;28;20037;-57
2022/10/04 06:10:13;;;;;;;15.50;8.02;;;;;;;9.85;89.58;102001.19;5000087;28;20030;-57
2022/10/04 06:12:49;;;;;;;13.02;7.82;;;;;;;9.88;89.35;101997.56;4992184;28;20101;-57
2022/10/04 06:15:49;;;;;;;14.65;8.30;;;;;;;9.86;89.49;101996.78;4992008;28;20042;-57
2022/10/04 06:18:46;;;;;;;12.57;8.10;;;;;;;9.91;89.25;102008.06;4991810;28;20026;-56
2022/10/04 06:21:20;;;;;;;14.93;8.20;;;;;;;9.88;89.35;102001.09;5008496;28;20370;-56
2022/10/04 06:24:11;;;;;;;15.27;8.27;;;;;;;9.92;89.34;102007.16;5011516;28;20026;-56
2022/10/04 06:26:47;;;;;;;14.23;7.85;;;;;;;9.88;89.51;101993.13;5011495;28;20038;-56
2022/10/04 06:29:19;;;;;;;14.75;7.85;;;;;;;9.92;89.44;102002.69;5011510;28;20042;-57
2022/10/04 06:32:22;;;;;;;15.80;7.65;;;;;;;9.99;89.17;102006.81;5009766;28;20392;-57
2022/10/04 06:35:03;;;;;;;11.82;7.75;;;;;;;10.02;89.20;102003.16;5010995;28;20018;-57
2022/10/04 06:37:49;;;;;;;13.57;7.68;;;;;;;10.02;89.03;102000.50;4992153;28;20026;-56
2022/10/04 06:40:26;;;;;;;13.85;7.75;;;;;;;10.08;89.40;101997.59;5002465;28;20408;-57
2022/10/04 06:43:29;;;;;;;15.93;7.60;;;;;;;9.90;89.15;101955.84;5011283;28;20552;-55
2022/10/04 06:46:12;;;;;;;13.40;7.82;;;;;;;10.09;89.20;101994.03;5011443;28;20044;-56
2022/10/04 06:49:16;;;;;;;17.63;7.30;;;;;;;10.05;88.71;101992.41;5010831;28;20469;-55
2022/10/04 06:52:02;;;;;;;12.75;8.18;;;;;;;10.05;88.80;101992.41;4982492;28;20036;-56
2022/10/04 06:54:31;;;;;;;16.20;7.63;;;;;;;10.02;88.47;101998.69;5010198;28;20029;-56
2022/10/04 06:57:22;;;;;;;20.85;8.25;;;;;;;10.00;88.43;101992.59;4993352;28;20100;-55
2022/10/04 06:59:50;;;;;;;14.48;7.60;;;;;;;9.93;88.56;101988.47;5001342;28;20033;-56
2022/10/04 07:02:25;;;;;;;14.80;7.82;;;;;;;9.90;88.90;101990.41;4993235;28;20485;-56
2022/10/04 07:04:58;;;;;;;14.23;8.15;;;;;;;9.86;89.47;101988.81;4984319;28;20065;-56
2022/10/04 07:07:34;;;;;;;12.75;7.60;;;;;;;9.83;89.46;101989.78;5011102;28;20330;-56
2022/10/04 07:10:24;;;;;;;16.55;8.32;;;;;;;9.84;89.86;101980.88;4971898;28;20035;-56
2022/10/04 07:13:32;;;;;;;13.10;7.70;;;;;;;9.87;89.52;101982.56;4960515;28;20037;-56
2022/10/04 07:16:28;;;;;;;10.63;8.05;;;;;;;9.93;89.59;101985.81;5010734;28;20130;-57
2022/10/04 07:19:19;;;;;;;16.25;7.63;;;;;;;9.98;90.00;101985.63;5010502;28;20048;-56
2022/10/04 07:21:56;;;;;;;11.40;7.47;;;;;;;10.05;89.69;101983.56;5010878;28;20041;-55
2022/10/04 07:24:47;;;;;;;11.10;8.18;;;;;;;10.15;89.75;101974.28;5009061;28;20014;-56
2022/10/04 07:27:22;;;;;;;17.00;9.27;;;;;;;10.19;89.51;101975.88;4992289;28;20065;-56
2022/10/04 07:29:54;;;;;;;16.27;8.05;;;;;;;10.22;89.23;101979.25;4990922;28;20113;-56
2022/10/04 07:32:28;;;;;;;13.88;7.97;;;;;;;10.29;89.52;101984.34;4991066;28;20026;-56
2022/10/04 07:35:04;;;;;;;17.25;7.97;;;;;;;10.38;88.76;101984.81;4991488;28;20057;-56
2022/10/04 07:37:43;;;;;;;18.23;8.52;;;;;;;10.42;89.08;101980.22;4990947;28;20087;-56
2022/10/04 07:40:31;;;;;;;20.58;8.68;;;;;;;10.50;88.85;101983.41;4990785;28;20038;-56
2022/10/04 07:43:03;;;;;;;14.75;8.63;;;;;;;10.55;88.23;101992.03;4990948;28;20034;-56
2022/10/04 07:45:32;;;;;;;18.02;8.50;;;;;;;10.64;88.20;101978.31;4979396;28;20061;-56
2022/10/04 07:48:27;;;;;;;15.40;7.88;;;;;;;10.77;87.97;101991.94;4990827;28;20062;-56
2022/10/04 07:51:17;;;;;;;15.18;8.50;;;;;;;10.87;87.92;101995.03;4990675;28;20026;-56
2022/10/04 07:53:55;;;;;;;14.68;7.93;;;;;;;10.98;87.84;101983.91;4990203;28;20527;-57
2022/10/04 07:56:37;;;;;;;15.43;8.45;;;;;;;11.01;86.51;101970.44;5002503;28;20447;-56
2022/10/04 07:59:20;;;;;;;14.85;7.80;;;;;;;11.17;86.29;101975.91;5009687;28;20045;-56
2022/10/04 08:02:06;;;;;;;17.70;9.07;;;;;;;11.29;86.57;101975.31;5009908;28;20030;-56
2022/10/04 08:05:04;;;;;;;12.05;8.25;;;;;;;11.35;85.73;101969.69;4999676;28;20041;-56
2022/10/04 08:07:38;;;;;;;10.10;7.30;;;;;;;11.50;85.46;101974.28;4991782;28;20447;-56
2022/10/04 08:10:16;;;;;;;16.10;8.55;;;;;;;11.62;85.84;101971.94;5000082;28;20078;-55
2022/10/04 08:13:18;;;;;;;14.30;8.20;;;;;;;11.77;84.43;101976.53;5009892;28;20079;-56
2022/10/04 08:15:46;;;;;;;13.27;7.60;;;;;;;11.92;83.97;101972.28;4997319;28;20053;-57
2022/10/04 08:18:51;;;;;;;10.13;7.43;;;;;;;11.97;83.56;101947.09;4990232;28;20393;-56
2022/10/04 08:21:30;;;;;;;14.55;7.95;;;;;;;12.27;82.73;101962.47;4974091;28;20041;-57
2022/10/04 08:24:04;;;;;;;10.43;7.68;;;;;;;12.39;81.57;101964.47;4990131;28;20091;-56
2022/10/04 08:26:54;;;;;;;14.90;7.85;;;;;;;12.53;81.39;101966.41;4990268;28;20041;-57
2022/10/04 08:29:46;;;;;;;11.35;7.15;;;;;;;12.59;79.81;101963.41;4989760;28;20377;-57
2022/10/04 08:32:48;;;;;;;11.32;7.15;;;;;;;12.70;80.51;101976.16;4982400;28;20059;-56
2022/10/04 08:35:44;;;;;;;14.13;7.53;;;;;;;12.71;78.65;101976.09;4991622;28;20034;-56
2022/10/04 08:38:41;;;;;;;12.65;7.65;;;;;;;12.63;78.95;101977.44;5009671;28;20049;-57
2022/10/04 08:41:07;;;;;;;13.23;7.47;;;;;;;12.55;79.12;101977.84;5009635;28;20115;-57
2022/10/04 08:44:07;;;;;;;15.27;7.82;;;;;;;12.57;79.50;101975.13;4970337;28;20050;-56
2022/10/04 08:46:52;;;;;;;12.93;7.95;;;;;;;12.65;79.86;101973.75;4970554;28;20393;-56
2022/10/04 08:49:37;;;;;;;14.10;8.07;;;;;;;12.70;78.90;101984.16;5008789;28;20030;-57
2022/10/04 08:52:42;;;;;;;18.70;8.40;;;;;;;12.81;79.08;101980.94;5009180;28;20021;-56
2022/10/04 08:55:37;;;;;;;18.30;9.65;;;;;;;12.91;78.65;101972.34;5009282;28;20499;-56
2022/10/04 08:58:29;;;;;;;14.18;9.35;;;;;;;13.02;78.63;101970.88;5007163;28;20029;-56
2022/10/04 09:01:37;;;;;;;13.82;9.00;;;;;;;13.24;77.88;101979.44;5009182;28;20036;-56
2022/10/04 09:04:29;;;;;;;15.90;8.60;;;;;;;13.46;77.68;101979.09;4990330;28;20026;-56
2022/10/04 09:07:29;;;;;;;15.27;9.40;;;;;;;13.67;76.45;101978.81;4989700;28;20033;-57
2022/10/04 09:10:13;;;;;;;15.88;8.77;;;;;;;13.81;75.43;101978.88;4970061;28;20385;-57
2022/10/04 09:12:55;;;;;;;18.83;9.57;;;;;;;13.94;74.70;101981.69;4969979;28;20046;-56
2022/10/04 09:15:20;;;;;;;15.35;9.10;;;;;;;14.13;74.65;101990.34;4969724;28;20051;-57
2022/10/04 09:17:52;;;;;;;12.48;8.75;;;;;;;14.21;72.91;101993.44;4988369;28;20026;-56
2022/10/04 09:20:31;;;;;;;17.42;9.13;;;;;;;14.41;72.77;101986.88;4968805;28;20030;-56
2022/10/04 09:23:07;;;;;;;13.27;8.75;;;;;;;14.56;72.24;101985.13;4984702;28;20417;-56
2022/10/04 09:25:48;;;;;;;13.18;8.25;;;;;;;14.67;72.30;101985.28;4969584;28;20023;-56
2022/10/04 09:28:44;;;;;;;14.77;8.38;;;;;;;14.65;71.80;101948.88;4970293;28;20022;-56
2022/10/04 09:31:27;;;;;;;14.50;7.53;;;;;;;14.85;70.13;101966.34;4983822;28;20030;-56
2022/10/04 09:34:30;;;;;;;15.80;7.28;;;;;;;14.98;70.67;101970.00;4988131;28;20083;-56
2022/10/04 09:37:22;;;;;;;14.55;7.25;;;;;;;15.13;70.06;101954.75;4977963;28;20035;-56
2022/10/04 09:40:33;;;;;;;13.65;7.53;;;;;;;15.29;69.06;101954.59;4984360;28;20096;-57
2022/10/04 09:43:41;;;;;;;12.65;7.03;;;;;;;15.36;68.19;101956.78;4988627;28;20256;-57
2022/10/04 09:46:50;;;;;;;12.25;6.60;;;;;;;15.38;68.01;101956.69;4985027;28;20404;-56
2022/10/04 09:49:26;;;;;;;13.15;6.70;;;;;;;15.50;68.78;101955.88;4989202;28;20026;-56
2022/10/04 09:52:20;;;;;;;9.88;6.55;;;;;;;15.79;67.40;101947.72;5000631;28;20019;-56
2022/10/04 09:55:18;;;;;;;15.20;7.25;;;;;;;15.88;66.33;101965.88;4987892;28;20022;-57
2022/10/04 09:58:10;;;;;;;12.27;6.45;;;;;;;15.93;66.78;101965.59;4982739;28;20461;-56
2022/10/04 10:00:48;;;;;;;10.43;6.93;;;;;;;16.11;65.73;101967.88;4994456;28;20106;-57
2022/10/04 10:03:51;;;;;;;12.85;6.65;;;;;;;16.22;66.22;101964.47;4972082;28;20103;-57
2022/10/04 10:07:04;;;;;;;11.23;5.90;;;;;;;16.53;65.59;101951.56;4970828;28;20034;-56
2022/10/04 10:15:54;;;;;;;12.75;6.03;;;;;;;17.17;62.59;101956.84;4990070;28;20061;-56
2022/10/04 10:18:32;;;;;;;10.48;5.63;;;;;;;17.12;62.00;101953.66;4970350;28;20080;-56
2022/10/04 10:21:21;;;;;;;7.55;5.45;;;;;;;17.25;63.24;101946.41;4981235;28;20049;-57
2022/10/04 10:23:49;;;;;;;11.80;5.80;;;;;;;17.56;61.87;101952.19;4986909;28;20030;-57
2022/10/04 10:26:22;;;;;;;9.25;5.88;;;;;;;17.69;61.43;101942.22;4986850;28;20046;-56
2022/10/04 10:29:14;;;;;;;13.45;5.65;;;;;;;17.88;59.61;101937.22;4990517;28;20065;-57
2022/10/04 10:32:21;;;;;;;10.05;5.35;;;;;;;17.97;60.98;101929.38;4985418;28;20073;-56
2022/10/04 10:35:05;;;;;;;10.73;5.40;;;;;;;18.19;60.30;101925.91;4989927;28;20022;-57
2022/10/04 10:37:56;;;;;;;8.95;4.60;;;;;;;18.43;60.16;101931.19;4989285;28;20026;-57
2022/10/04 10:40:31;;;;;;;8.23;4.97;;;;;;;18.59;60.92;101935.25;5079258;28;20053;-57
2022/10/04 10:43:14;;;;;;;9.75;5.10;;;;;;;18.97;57.69;101936.72;5066163;28;20026;-56
2022/10/04 10:46:03;;;;;;;9.43;4.65;;;;;;;19.28;56.77;101932.34;4990670;28;20033;-57
2022/10/04 10:49:06;;;;;;;8.38;4.13;;;;;;;19.73;56.74;101940.31;4989835;28;20042;-56
2022/10/04 10:52:10;;;;;;;10.57;5.03;;;;;;;20.00;54.89;101954.28;4989245;28;20034;-57
2022/10/04 10:55:04;;;;;;;9.88;4.47;;;;;;;20.12;54.44;101958.69;4995465;28;20062;-57
2022/10/04 10:58:00;;;;;;;9.95;5.00;;;;;;;19.86;54.62;101956.34;4996907;28;20041;-57
2022/10/04 11:00:49;;;;;;;8.02;4.75;;;;;;;19.63;54.32;101947.44;4989895;28;20456;-57
2022/10/04 11:03:47;;;;;;;11.95;5.18;;;;;;;19.73;54.32;101948.41;4974070;28;20381;-57
2022/10/04 11:06:21;;;;;;;12.03;4.00;;;;;;;20.47;51.82;101938.50;5053415;28;20038;-57
2022/10/04 11:09:08;;;;;;;7.63;4.43;;;;;;;21.06;53.48;101937.78;4973508;28;20030;-57
2022/10/04 11:12:00;;;;;;;10.77;4.00;;;;;;;21.42;48.27;101933.63;4991056;28;20022;-57
2022/10/04 11:15:07;;;;;;;6.78;4.38;;;;;;;21.97;48.30;101922.19;4986875;28;20681;-56
2022/10/04 11:17:55;;;;;;;6.38;3.60;;;;;;;22.67;48.42;101909.16;4961781;28;20101;-57
2022/10/04 11:20:54;;;;;;;9.20;3.80;;;;;;;22.93;45.91;101903.03;4971813;28;20037;-57
2022/10/04 11:23:50;;;;;;;7.22;3.60;;;;;;;23.16;46.92;101920.63;4986285;28;20175;-57
2022/10/04 11:26:19;;;;;;;8.10;3.88;;;;;;;23.23;43.41;101912.72;4990287;28;20048;-57
2022/10/04 11:28:51;;;;;;;7.55;3.75;;;;;;;23.48;43.23;101911.13;4985204;28;20029;-57
2022/10/04 11:31:39;;;;;;;9.15;3.67;;;;;;;23.98;44.38;101910.56;4973018;28;20064;-57
2022/10/04 11:34:36;;;;;;;6.75;3.30;;;;;;;24.53;43.05;101903.94;4989951;28;20069;-57
2022/10/04 11:37:20;;;;;;;9.00;3.72;;;;;;;24.75;38.33;101905.25;4971336;28;20039;-57
2022/10/04 11:39:54;;;;;;;9.98;3.42;;;;;;;24.69;40.04;101902.16;4987897;28;20081;-56
2022/10/04 11:42:34;;;;;;;7.18;3.15;;;;;;;24.74;39.60;101887.19;4985583;28;20034;-57
2022/10/04 11:45:00;;;;;;;7.35;3.25;;;;;;;24.37;38.92;101893.81;4987551;28;20022;-57
2022/10/04 11:47:39;;;;;;;6.88;3.08;;;;;;;24.46;40.25;101898.28;4990320;28;20030;-57
2022/10/04 11:50:23;;;;;;;7.47;3.35;;;;;;;24.65;40.28;101889.06;4994581;28;20027;-57
2022/10/04 11:53:02;;;;;;;4.88;2.78;;;;;;;24.70;39.29;101892.09;4990084;28;20117;-57
2022/10/04 11:55:45;;;;;;;7.90;3.08;;;;;;;24.93;38.14;101882.31;4989833;28;20030;-57
2022/10/04 11:58:42;;;;;;;7.63;3.28;;;;;;;24.58;39.44;101885.25;4990126;28;20507;-58
2022/10/04 12:01:39;;;;;;;7.75;2.50;;;;;;;23.90;39.48;101880.59;5000226;28;20033;-57
2022/10/04 12:04:19;;;;;;;5.78;2.88;;;;;;;23.26;39.68;101875.25;4980143;28;20041;-57
2022/10/04 12:06:47;;;;;;;7.15;2.75;;;;;;;23.01;40.99;101881.47;4983336;28;20400;-56
2022/10/04 12:09:16;;;;;;;4.90;2.72;;;;;;;22.66;42.43;101875.75;4972604;28;20469;-57
2022/10/04 12:12:38;;;;;;;8.07;2.85;;;;;;;22.34;43.18;101887.03;4990007;28;20022;-58
2022/10/04 12:15:31;;;;;;;8.35;3.53;;;;;;;21.68;44.88;101890.59;4973486;28;20512;-57
2022/10/04 12:18:16;;;;;;;5.68;3.42;;;;;;;22.92;43.88;101871.50;4963943;28;20037;-57
2022/10/04 12:20:57;;;;;;;9.35;3.80;;;;;;;23.31;42.54;101878.38;4995492;28;20068;-57